createdAt,value
2017-01-08T00:00:01.317Z,0
2017-01-08T00:01:01.273Z,0
2017-01-08T00:02:01.225Z,0
2017-01-08T00:03:01.183Z,0
2017-01-08T00:04:01.522Z,0
2017-01-08T00:05:01.123Z,0
2017-01-08T00:06:01.047Z,0
2017-01-08T00:07:01.390Z,0
2017-01-08T00:08:01.349Z,0
2017-01-08T00:09:00.534Z,0
2017-01-08T00:10:01.256Z,0
2017-01-08T00:11:01.216Z,0
2017-01-08T00:12:01.173Z,0
2017-01-08T00:13:01.127Z,0
2017-01-08T00:14:00.309Z,0
2017-01-08T00:15:00.654Z,0
2017-01-08T00:16:00.223Z,0
2017-01-08T00:17:00.174Z,0
2017-01-08T00:18:00.137Z,0
2017-01-08T00:19:00.094Z,0
2017-01-08T00:20:00.813Z,0
2017-01-08T00:21:00.775Z,0
2017-01-08T00:22:00.735Z,0
2017-01-08T00:23:00.682Z,0
2017-01-08T00:24:00.648Z,0
2017-01-08T00:25:00.593Z,0
2017-01-08T00:26:00.551Z,0
2017-01-08T00:26:59.735Z,0
2017-01-08T00:28:00.103Z,0
2017-01-08T00:29:00.029Z,0
2017-01-08T00:29:59.602Z,0
2017-01-08T00:31:00.331Z,0
2017-01-08T00:32:00.286Z,0
2017-01-08T00:33:00.236Z,0
2017-01-08T00:34:00.201Z,0
2017-01-08T00:34:59.764Z,0
2017-01-08T00:35:59.732Z,0
2017-01-08T00:37:00.072Z,0
2017-01-08T00:38:00.018Z,0
2017-01-08T00:38:59.204Z,0
2017-01-08T00:39:59.933Z,0
2017-01-08T00:40:59.505Z,0
2017-01-08T00:41:59.070Z,0
2017-01-08T00:42:59.799Z,0
2017-01-08T00:43:59.761Z,0
2017-01-08T00:44:59.327Z,0
2017-01-08T00:45:59.283Z,0
2017-01-08T00:46:58.850Z,0
2017-01-08T00:47:59.585Z,0
2017-01-08T00:48:59.147Z,0
2017-01-08T00:49:59.491Z,0
2017-01-08T00:50:59.444Z,0
2017-01-08T00:51:59.024Z,0
2017-01-08T00:52:59.357Z,0
2017-01-08T00:53:59.319Z,0
2017-01-08T00:54:58.899Z,0
2017-01-08T00:55:59.252Z,0
2017-01-08T00:56:58.813Z,0
2017-01-08T00:57:58.752Z,0
2017-01-08T00:58:58.345Z,0
2017-01-08T00:59:58.671Z,0
2017-01-08T01:00:59.010Z,0
2017-01-08T01:01:58.189Z,0
2017-01-08T01:02:58.530Z,0
2017-01-08T01:03:58.519Z,0
2017-01-08T01:04:58.829Z,0
2017-01-08T01:05:58.398Z,0
2017-01-08T01:06:58.740Z,0
2017-01-08T01:07:57.926Z,0
2017-01-08T01:08:58.650Z,0
2017-01-08T01:09:58.606Z,0
2017-01-08T01:10:58.589Z,0
2017-01-08T01:11:58.519Z,0
2017-01-08T01:12:58.479Z,0
2017-01-08T01:13:58.432Z,0
2017-01-08T01:14:58.004Z,0
2017-01-08T01:15:58.349Z,0
2017-01-08T01:16:58.302Z,0
2017-01-08T01:17:58.257Z,0
2017-01-08T01:18:57.830Z,0
2017-01-08T01:19:57.397Z,0
2017-01-08T01:20:57.744Z,0
2017-01-08T01:21:56.929Z,0
2017-01-08T01:22:57.652Z,0
2017-01-08T01:23:58.020Z,0
2017-01-08T01:24:57.560Z,0
2017-01-08T01:25:57.522Z,0
2017-01-08T01:26:57.476Z,0
2017-01-08T01:27:57.817Z,0
2017-01-08T01:28:57.394Z,0
2017-01-08T01:29:57.343Z,0
2017-01-08T01:30:57.684Z,0
2017-01-08T01:31:57.258Z,0
2017-01-08T01:32:57.603Z,0
2017-01-08T01:33:57.171Z,0
2017-01-08T01:34:57.514Z,0
2017-01-08T01:35:57.465Z,0
2017-01-08T01:36:57.414Z,0
2017-01-08T01:37:56.992Z,0
2017-01-08T01:38:56.946Z,0
2017-01-08T01:39:56.519Z,0
2017-01-08T01:40:57.241Z,0
2017-01-08T01:41:57.200Z,0
2017-01-08T01:42:56.773Z,0
2017-01-08T01:43:57.113Z,0
2017-01-08T01:44:57.077Z,0
2017-01-08T01:45:57.026Z,0
2017-01-08T01:46:56.598Z,0
2017-01-08T01:47:56.554Z,0
2017-01-08T01:48:56.511Z,0
2017-01-08T01:49:56.462Z,0
2017-01-08T01:50:56.420Z,0
2017-01-08T01:51:56.379Z,0
2017-01-08T01:52:56.723Z,0
2017-01-08T01:53:56.285Z,0
2017-01-08T01:54:56.635Z,0
2017-01-08T01:55:56.588Z,0
2017-01-08T01:56:56.183Z,0
2017-01-08T01:57:55.729Z,0
2017-01-08T01:58:56.079Z,0
2017-01-08T01:59:55.665Z,0
2017-01-08T02:00:55.597Z,0
2017-01-08T02:01:56.002Z,0
2017-01-08T02:02:56.280Z,0
2017-01-08T02:03:56.234Z,0
2017-01-08T02:04:55.813Z,0
2017-01-08T02:05:56.150Z,0
2017-01-08T02:06:56.104Z,0
2017-01-08T02:07:56.062Z,0
2017-01-08T02:08:56.020Z,0
2017-01-08T02:09:55.969Z,0
2017-01-08T02:10:55.926Z,0
2017-01-08T02:11:55.895Z,0
2017-01-08T02:12:55.460Z,0
2017-01-08T02:13:55.801Z,0
2017-01-08T02:14:54.985Z,0
2017-01-08T02:15:55.715Z,0
2017-01-08T02:16:55.278Z,0
2017-01-08T02:17:55.628Z,0
2017-01-08T02:18:55.602Z,0
2017-01-08T02:19:55.540Z,0
2017-01-08T02:20:55.109Z,0
2017-01-08T02:21:55.065Z,0
2017-01-08T02:22:54.633Z,0
2017-01-08T02:23:54.973Z,0
2017-01-08T02:24:55.318Z,0
2017-01-08T02:25:54.894Z,0
2017-01-08T02:26:54.843Z,0
2017-01-08T02:27:54.801Z,0
2017-01-08T02:28:54.396Z,0
2017-01-08T02:29:54.334Z,0
2017-01-08T02:30:55.055Z,0
2017-01-08T02:31:54.627Z,0
2017-01-08T02:32:54.967Z,0
2017-01-08T02:33:54.535Z,0
2017-01-08T02:34:54.887Z,0
2017-01-08T02:35:54.832Z,0
2017-01-08T02:36:54.412Z,0
2017-01-08T02:37:54.362Z,0
2017-01-08T02:38:54.322Z,0
2017-01-08T02:39:54.276Z,0
2017-01-08T02:40:54.618Z,0
2017-01-08T02:41:54.579Z,0
2017-01-08T02:42:54.138Z,0
2017-01-08T02:43:54.482Z,0
2017-01-08T02:44:54.442Z,0
2017-01-08T02:45:54.011Z,0
2017-01-08T02:46:54.348Z,0
2017-01-08T02:47:53.927Z,0
2017-01-08T02:48:54.268Z,0
2017-01-08T02:49:54.216Z,0
2017-01-08T02:50:54.170Z,0
2017-01-08T02:51:54.172Z,0
2017-01-08T02:52:54.089Z,0
2017-01-08T02:53:53.275Z,0
2017-01-08T02:54:53.616Z,0
2017-01-08T02:55:53.963Z,0
2017-01-08T02:56:53.911Z,0
2017-01-08T02:57:53.869Z,0
2017-01-08T02:58:53.821Z,0
2017-01-08T02:59:53.783Z,0
2017-01-08T03:00:52.969Z,0
2017-01-08T03:01:53.691Z,0
2017-01-08T03:02:53.259Z,0
2017-01-08T03:03:53.216Z,0
2017-01-08T03:04:53.580Z,0
2017-01-08T03:05:53.513Z,0
2017-01-08T03:06:53.135Z,0
2017-01-08T03:07:53.047Z,0
2017-01-08T03:08:53.385Z,0
2017-01-08T03:09:53.343Z,0
2017-01-08T03:10:53.291Z,0
2017-01-08T03:11:53.252Z,0
2017-01-08T03:12:52.823Z,0
2017-01-08T03:13:53.165Z,0
2017-01-08T03:14:52.741Z,0
2017-01-08T03:15:53.102Z,0
2017-01-08T03:16:52.649Z,0
2017-01-08T03:17:52.605Z,0
2017-01-08T03:18:52.940Z,0
2017-01-08T03:19:52.514Z,0
2017-01-08T03:20:52.858Z,0
2017-01-08T03:21:52.425Z,0
2017-01-08T03:22:52.384Z,0
2017-01-08T03:23:52.728Z,0
2017-01-08T03:24:52.680Z,0
2017-01-08T03:25:52.636Z,0
2017-01-08T03:26:52.592Z,0
2017-01-08T03:27:51.785Z,0
2017-01-08T03:28:51.736Z,0
2017-01-08T03:29:52.461Z,0
2017-01-08T03:30:52.418Z,0
2017-01-08T03:31:52.374Z,0
2017-01-08T03:32:52.326Z,0
2017-01-08T03:33:52.285Z,0
2017-01-08T03:34:51.853Z,0
2017-01-08T03:35:51.429Z,0
2017-01-08T03:36:51.767Z,0
2017-01-08T03:37:51.733Z,0
2017-01-08T03:38:51.293Z,0
2017-01-08T03:39:51.633Z,0
2017-01-08T03:40:51.605Z,0
2017-01-08T03:41:51.550Z,0
2017-01-08T03:42:51.508Z,0
2017-01-08T03:43:51.842Z,0
2017-01-08T03:44:51.419Z,0
2017-01-08T03:45:51.760Z,0
2017-01-08T03:46:51.329Z,0
2017-01-08T03:47:51.285Z,0
2017-01-08T03:48:51.241Z,0
2017-01-08T03:49:51.592Z,0
2017-01-08T03:50:51.541Z,0
2017-01-08T03:51:51.493Z,0
2017-01-08T03:52:51.099Z,0
2017-01-08T03:53:50.638Z,0
2017-01-08T03:54:51.363Z,0
2017-01-08T03:55:50.937Z,0
2017-01-08T03:56:50.893Z,0
2017-01-08T03:57:50.853Z,0
2017-01-08T03:58:51.191Z,0
2017-01-08T03:59:51.143Z,0
2017-01-08T04:00:51.105Z,0
2017-01-08T04:01:50.301Z,0
2017-01-08T04:02:50.630Z,0
2017-01-08T04:03:50.967Z,0
2017-01-08T04:04:50.923Z,0
2017-01-08T04:05:50.879Z,0
2017-01-08T04:06:50.840Z,0
2017-01-08T04:07:50.791Z,0
2017-01-08T04:08:50.746Z,0
2017-01-08T04:09:50.329Z,0
2017-01-08T04:10:50.275Z,0
2017-01-08T04:11:50.232Z,0
2017-01-08T04:12:50.194Z,0
2017-01-08T04:13:49.760Z,0
2017-01-08T04:14:50.488Z,0
2017-01-08T04:15:50.066Z,0
2017-01-08T04:16:50.016Z,0
2017-01-08T04:17:50.355Z,0
2017-01-08T04:18:49.927Z,0
2017-01-08T04:19:50.271Z,0
2017-01-08T04:20:50.229Z,0
2017-01-08T04:21:50.190Z,0
2017-01-08T04:22:49.772Z,0
2017-01-08T04:23:49.337Z,0
2017-01-08T04:24:49.677Z,0
2017-01-08T04:25:50.035Z,0
2017-01-08T04:26:49.962Z,0
2017-01-08T04:27:49.544Z,0
2017-01-08T04:28:49.498Z,0
2017-01-08T04:29:49.063Z,0
2017-01-08T04:30:49.411Z,0
2017-01-08T04:31:49.748Z,0
2017-01-08T04:32:49.314Z,0
2017-01-08T04:33:48.887Z,0
2017-01-08T04:34:49.617Z,0
2017-01-08T04:35:49.186Z,0
2017-01-08T04:36:49.143Z,0
2017-01-08T04:37:49.479Z,0
2017-01-08T04:38:49.056Z,0
2017-01-08T04:39:49.020Z,0
2017-01-08T04:40:48.967Z,0
2017-01-08T04:41:49.339Z,0
2017-01-08T04:42:48.886Z,0
2017-01-08T04:43:48.842Z,0
2017-01-08T04:44:49.175Z,0
2017-01-08T04:45:48.750Z,0
2017-01-08T04:46:49.089Z,0
2017-01-08T04:47:49.048Z,0
2017-01-08T04:48:49.003Z,0
2017-01-08T04:49:48.574Z,0
2017-01-08T04:50:48.925Z,0
2017-01-08T04:51:48.869Z,0
2017-01-08T04:52:48.061Z,0
2017-01-08T04:53:48.785Z,0
2017-01-08T04:54:48.744Z,0
2017-01-08T04:55:48.700Z,0
2017-01-08T04:56:48.657Z,0
2017-01-08T04:57:48.609Z,0
2017-01-08T04:58:48.208Z,0
2017-01-08T04:59:47.753Z,0
2017-01-08T05:00:48.486Z,0
2017-01-08T05:01:47.668Z,0
2017-01-08T05:02:48.398Z,0
2017-01-08T05:03:47.965Z,0
2017-01-08T05:04:48.311Z,0
2017-01-08T05:05:48.259Z,0
2017-01-08T05:06:47.838Z,0
2017-01-08T05:07:48.175Z,0
2017-01-08T05:08:48.130Z,0
2017-01-08T05:09:48.087Z,0
2017-01-08T05:10:47.663Z,0
2017-01-08T05:11:48.006Z,0
2017-01-08T05:12:47.573Z,0
2017-01-08T05:13:47.525Z,0
2017-01-08T05:14:47.894Z,0
2017-01-08T05:15:47.829Z,0
2017-01-08T05:16:47.398Z,0
2017-01-08T05:17:47.356Z,0
2017-01-08T05:18:47.697Z,0
2017-01-08T05:19:47.654Z,0
2017-01-08T05:20:47.223Z,0
2017-01-08T05:21:47.567Z,0
2017-01-08T05:22:47.138Z,0
2017-01-08T05:23:47.091Z,0
2017-01-08T05:24:47.048Z,0
2017-01-08T05:25:47.658Z,0
2017-01-08T05:26:46.966Z,0
2017-01-08T05:27:46.918Z,0
2017-01-08T05:28:46.874Z,0
2017-01-08T05:29:46.830Z,0
2017-01-08T05:30:46.788Z,0
2017-01-08T05:31:46.746Z,0
2017-01-08T05:32:47.083Z,0
2017-01-08T05:33:47.074Z,0
2017-01-08T05:34:46.617Z,0
2017-01-08T05:35:46.573Z,0
2017-01-08T05:36:47.311Z,0
2017-01-08T05:37:46.485Z,0
2017-01-08T05:38:46.827Z,0
2017-01-08T05:39:46.397Z,0
2017-01-08T05:40:46.349Z,0
2017-01-08T05:41:46.693Z,0
2017-01-08T05:42:46.645Z,0
2017-01-08T05:43:46.218Z,0
2017-01-08T05:44:45.794Z,0
2017-01-08T05:45:46.523Z,0
2017-01-08T05:46:46.474Z,0
2017-01-08T05:47:45.663Z,0
2017-01-08T05:48:45.622Z,0
2017-01-08T05:49:46.346Z,0
2017-01-08T05:50:46.294Z,0
2017-01-08T05:51:45.870Z,0
2017-01-08T05:52:46.213Z,0
2017-01-08T05:53:46.169Z,0
2017-01-08T05:54:45.740Z,0
2017-01-08T05:55:45.702Z,0
2017-01-08T05:56:46.043Z,0
2017-01-08T05:57:45.609Z,0
2017-01-08T05:58:45.948Z,0
2017-01-08T05:59:45.523Z,0
2017-01-08T06:00:45.860Z,0
2017-01-08T06:01:45.822Z,0
2017-01-08T06:02:45.777Z,0
2017-01-08T06:03:45.348Z,0
2017-01-08T06:04:45.693Z,0
2017-01-08T06:05:45.645Z,0
2017-01-08T06:06:45.254Z,0
2017-01-08T06:07:45.560Z,0
2017-01-08T06:08:45.512Z,0
2017-01-08T06:09:44.698Z,0
2017-01-08T06:10:45.427Z,0
2017-01-08T06:11:45.380Z,0
2017-01-08T06:12:44.959Z,0
2017-01-08T06:13:44.910Z,0
2017-01-08T06:14:44.487Z,0
2017-01-08T06:15:45.211Z,0
2017-01-08T06:16:45.171Z,0
2017-01-08T06:17:45.124Z,0
2017-01-08T06:18:44.695Z,0
2017-01-08T06:19:45.037Z,0
2017-01-08T06:20:44.617Z,0
2017-01-08T06:21:44.565Z,0
2017-01-08T06:22:44.522Z,0
2017-01-08T06:23:44.865Z,0
2017-01-08T06:24:44.438Z,0
2017-01-08T06:25:44.391Z,0
2017-01-08T06:26:44.347Z,0
2017-01-08T06:27:44.305Z,0
2017-01-08T06:28:44.644Z,0
2017-01-08T06:29:44.221Z,0
2017-01-08T06:30:44.557Z,0
2017-01-08T06:31:44.520Z,0
2017-01-08T06:32:44.475Z,0
2017-01-08T06:33:44.433Z,0
2017-01-08T06:34:44.388Z,0
2017-01-08T06:35:44.346Z,0
2017-01-08T06:36:44.300Z,0
2017-01-08T06:37:43.878Z,0
2017-01-08T06:38:44.212Z,0
2017-01-08T06:39:43.784Z,0
2017-01-08T06:40:43.355Z,0
2017-01-08T06:41:43.694Z,0
2017-01-08T06:42:44.040Z,0
2017-01-08T06:43:44.005Z,0
2017-01-08T06:44:43.561Z,0
2017-01-08T06:45:43.523Z,0
2017-01-08T06:46:43.093Z,0
2017-01-08T06:47:43.441Z,0
2017-01-08T06:48:43.395Z,0
2017-01-08T06:49:43.348Z,0
2017-01-08T06:50:43.305Z,0
2017-01-08T06:51:43.267Z,0
2017-01-08T06:52:43.604Z,0
2017-01-08T06:53:43.565Z,0
2017-01-08T06:54:43.132Z,0
2017-01-08T06:55:43.474Z,0
2017-01-08T06:56:43.429Z,0
2017-01-08T06:57:43.389Z,0
2017-01-08T06:58:43.344Z,0
2017-01-08T06:59:43.309Z,0
2017-01-08T07:00:42.872Z,0
2017-01-08T07:01:42.838Z,0
2017-01-08T07:02:43.170Z,0
2017-01-08T07:03:43.133Z,0
2017-01-08T07:04:43.094Z,0
2017-01-08T07:05:43.063Z,0
2017-01-08T07:06:42.643Z,0
2017-01-08T07:07:42.952Z,0
2017-01-08T07:08:42.156Z,0
2017-01-08T07:09:42.485Z,0
2017-01-08T07:10:42.440Z,0
2017-01-08T07:11:42.399Z,0
2017-01-08T07:12:42.735Z,0
2017-01-08T07:13:42.702Z,0
2017-01-08T07:14:42.266Z,0
2017-01-08T07:15:42.235Z,0
2017-01-08T07:16:42.564Z,5
2017-01-08T07:17:42.522Z,5
2017-01-08T07:18:41.707Z,5
2017-01-08T07:19:42.052Z,5
2017-01-08T07:20:42.005Z,5
2017-01-08T07:21:41.962Z,5
2017-01-08T07:22:42.300Z,10
2017-01-08T07:23:42.258Z,10
2017-01-08T07:24:42.215Z,10
2017-01-08T07:25:41.810Z,10
2017-01-08T07:26:42.131Z,10
2017-01-08T07:27:41.701Z,10
2017-01-08T07:28:41.657Z,15
2017-01-08T07:29:42.009Z,15
2017-01-08T07:30:41.188Z,15
2017-01-08T07:31:41.524Z,15
2017-01-08T07:32:40.725Z,15
2017-01-08T07:33:41.829Z,15
2017-01-08T07:34:41.392Z,20
2017-01-08T07:35:41.390Z,20
2017-01-08T07:36:41.310Z,20
2017-01-08T07:37:40.880Z,25
2017-01-08T07:38:41.221Z,25
2017-01-08T07:39:41.573Z,25
2017-01-08T07:40:41.136Z,25
2017-01-08T07:41:40.710Z,25
2017-01-08T07:42:41.465Z,25
2017-01-08T07:43:41.009Z,30
2017-01-08T07:44:41.508Z,30
2017-01-08T07:45:41.465Z,30
2017-01-08T07:46:41.805Z,35
2017-01-08T07:47:41.372Z,35
2017-01-08T07:48:41.715Z,35
2017-01-08T07:49:41.282Z,35
2017-01-08T07:50:41.626Z,35
2017-01-08T07:51:41.214Z,35
2017-01-08T07:52:41.539Z,35
2017-01-08T07:53:41.112Z,35
2017-01-08T07:54:41.452Z,35
2017-01-08T07:55:40.645Z,35
2017-01-08T07:56:40.986Z,35
2017-01-08T07:57:40.947Z,35
2017-01-08T07:58:40.903Z,35
2017-01-08T07:59:40.850Z,35
2017-01-08T08:00:40.423Z,35
2017-01-08T08:01:40.771Z,35
2017-01-08T08:02:40.721Z,35
2017-01-08T08:03:40.686Z,35
2017-01-08T08:04:40.639Z,35
2017-01-08T08:05:40.211Z,35
2017-01-08T08:06:40.554Z,35
2017-01-08T08:07:40.509Z,40
2017-01-08T08:08:40.853Z,40
2017-01-08T08:09:40.419Z,40
2017-01-08T08:10:40.387Z,45
2017-01-08T08:11:40.710Z,45
2017-01-08T08:12:40.676Z,45
2017-01-08T08:13:40.246Z,50
2017-01-08T08:14:40.201Z,50
2017-01-08T08:15:40.547Z,50
2017-01-08T08:16:40.132Z,50
2017-01-08T08:17:40.077Z,50
2017-01-08T08:18:40.031Z,55
2017-01-08T08:19:40.373Z,60
2017-01-08T08:20:40.332Z,60
2017-01-08T08:21:39.905Z,60
2017-01-08T08:22:40.259Z,60
2017-01-08T08:23:39.837Z,60
2017-01-08T08:24:39.786Z,60
2017-01-08T08:25:39.729Z,55
2017-01-08T08:26:39.685Z,55
2017-01-08T08:27:40.030Z,55
2017-01-08T08:28:39.612Z,60
2017-01-08T08:29:39.556Z,60
2017-01-08T08:30:39.902Z,65
2017-01-08T08:31:39.465Z,65
2017-01-08T08:32:39.437Z,65
2017-01-08T08:33:39.390Z,70
2017-01-08T08:34:39.344Z,75
2017-01-08T08:35:38.914Z,80
2017-01-08T08:36:39.256Z,80
2017-01-08T08:37:38.830Z,85
2017-01-08T08:38:39.170Z,85
2017-01-08T08:39:39.140Z,85
2017-01-08T08:40:39.467Z,80
2017-01-08T08:41:39.432Z,85
2017-01-08T08:42:39.384Z,85
2017-01-08T08:43:38.571Z,85
2017-01-08T08:44:39.297Z,90
2017-01-08T08:45:38.872Z,90
2017-01-08T08:46:39.218Z,90
2017-01-08T08:47:38.787Z,85
2017-01-08T08:48:39.144Z,85
2017-01-08T08:49:39.112Z,85
2017-01-08T08:50:38.304Z,80
2017-01-08T08:51:38.619Z,80
2017-01-08T08:52:38.956Z,85
2017-01-08T08:53:38.151Z,85
2017-01-08T08:54:38.870Z,85
2017-01-08T08:55:38.441Z,85
2017-01-08T08:56:38.403Z,85
2017-01-08T08:57:38.363Z,90
2017-01-08T08:58:38.314Z,95
2017-01-08T08:59:38.659Z,95
2017-01-08T09:00:38.611Z,90
2017-01-08T09:01:38.569Z,85
2017-01-08T09:02:38.527Z,85
2017-01-08T09:03:37.332Z,85
2017-01-08T09:04:38.055Z,85
2017-01-08T09:05:38.009Z,90
2017-01-08T09:06:37.965Z,90
2017-01-08T09:07:38.316Z,95
2017-01-08T09:08:37.907Z,95
2017-01-08T09:09:37.853Z,100
2017-01-08T09:10:37.034Z,100
2017-01-08T09:11:37.762Z,100
2017-01-08T09:12:37.746Z,95
2017-01-08T09:13:37.673Z,95
2017-01-08T09:14:37.239Z,100
2017-01-08T09:15:37.589Z,115
2017-01-08T09:16:37.157Z,125
2017-01-08T09:17:37.499Z,130
2017-01-08T09:18:37.459Z,135
2017-01-08T09:19:37.802Z,140
2017-01-08T09:20:37.757Z,140
2017-01-08T09:21:36.561Z,145
2017-01-08T09:22:37.681Z,150
2017-01-08T09:23:36.862Z,155
2017-01-08T09:24:37.598Z,155
2017-01-08T09:25:37.163Z,155
2017-01-08T09:26:37.505Z,155
2017-01-08T09:27:36.691Z,150
2017-01-08T09:28:36.654Z,150
2017-01-08T09:29:36.993Z,155
2017-01-08T09:30:37.332Z,145
2017-01-08T09:31:37.318Z,145
2017-01-08T09:32:37.259Z,145
2017-01-08T09:33:36.825Z,140
2017-01-08T09:34:36.781Z,135
2017-01-08T09:35:36.736Z,130
2017-01-08T09:36:35.926Z,125
2017-01-08T09:37:37.042Z,130
2017-01-08T09:38:36.999Z,130
2017-01-08T09:39:36.950Z,130
2017-01-08T09:40:36.543Z,130
2017-01-08T09:41:36.872Z,130
2017-01-08T09:42:36.444Z,130
2017-01-08T09:43:36.784Z,130
2017-01-08T09:44:36.372Z,135
2017-01-08T09:45:36.703Z,140
2017-01-08T09:46:36.272Z,140
2017-01-08T09:47:36.263Z,150
2017-01-08T09:48:36.575Z,150
2017-01-08T09:49:35.761Z,150
2017-01-08T09:50:36.149Z,150
2017-01-08T09:51:36.071Z,145
2017-01-08T09:52:35.634Z,145
2017-01-08T09:53:35.982Z,145
2017-01-08T09:54:36.323Z,140
2017-01-08T09:55:35.515Z,135
2017-01-08T09:56:36.239Z,135
2017-01-08T09:57:35.426Z,140
2017-01-08T09:58:36.148Z,140
2017-01-08T09:59:35.728Z,140
2017-01-08T10:00:35.684Z,140
2017-01-08T10:01:35.643Z,140
2017-01-08T10:03:35.942Z,155
2017-01-08T10:04:35.510Z,155
2017-01-08T10:05:35.470Z,160
2017-01-08T10:06:35.437Z,160
2017-01-08T10:07:35.390Z,165
2017-01-08T10:08:35.345Z,165
2017-01-08T10:09:34.921Z,170
2017-01-08T10:10:35.266Z,170
2017-01-08T10:11:35.228Z,165
2017-01-08T10:12:35.193Z,165
2017-01-08T10:13:35.141Z,170
2017-01-08T10:14:35.093Z,165
2017-01-08T10:15:35.063Z,170
2017-01-08T10:16:34.629Z,165
2017-01-08T10:17:34.975Z,170
2017-01-08T10:18:35.311Z,160
2017-01-08T10:19:34.885Z,150
2017-01-08T10:20:33.688Z,155
2017-01-08T10:21:34.809Z,165
2017-01-08T10:22:35.146Z,170
2017-01-08T10:23:34.719Z,180
2017-01-08T10:24:34.667Z,180
2017-01-08T10:25:35.016Z,185
2017-01-08T10:26:34.987Z,185
2017-01-08T10:27:34.936Z,190
2017-01-08T10:28:34.525Z,185
2017-01-08T10:29:34.079Z,180
2017-01-08T10:30:34.820Z,185
2017-01-08T10:31:34.769Z,185
2017-01-08T10:32:34.725Z,190
2017-01-08T10:33:34.343Z,190
2017-01-08T10:34:34.257Z,195
2017-01-08T10:35:33.831Z,200
2017-01-08T10:36:34.180Z,200
2017-01-08T10:37:34.131Z,205
2017-01-08T10:38:34.101Z,205
2017-01-08T10:39:33.664Z,215
2017-01-08T10:40:33.236Z,220
2017-01-08T10:41:33.964Z,225
2017-01-08T10:42:33.545Z,225
2017-01-08T10:43:33.890Z,225
2017-01-08T10:44:33.844Z,225
2017-01-08T10:45:33.415Z,235
2017-01-08T10:46:33.372Z,240
2017-01-08T10:47:33.344Z,245
2017-01-08T10:48:33.679Z,235
2017-01-08T10:49:33.254Z,235
2017-01-08T10:50:33.593Z,235
2017-01-08T10:51:33.553Z,245
2017-01-08T10:52:33.518Z,255
2017-01-08T10:53:33.481Z,260
2017-01-08T10:54:33.463Z,255
2017-01-08T10:55:33.801Z,245
2017-01-08T10:56:33.349Z,235
2017-01-08T10:57:33.704Z,225
2017-01-08T10:58:33.661Z,225
2017-01-08T10:59:33.228Z,215
2017-01-08T11:00:33.569Z,210
2017-01-08T11:01:33.146Z,205
2017-01-08T11:02:33.486Z,205
2017-01-08T11:03:33.450Z,205
2017-01-08T11:04:32.265Z,205
2017-01-08T11:05:33.366Z,205
2017-01-08T11:06:33.332Z,205
2017-01-08T11:07:32.517Z,200
2017-01-08T11:08:33.244Z,200
2017-01-08T11:09:32.820Z,205
2017-01-08T11:10:32.774Z,205
2017-01-08T11:11:33.123Z,205
2017-01-08T11:12:33.300Z,210
2017-01-08T11:13:32.669Z,215
2017-01-08T11:14:32.720Z,215
2017-01-08T11:15:32.581Z,215
2017-01-08T11:16:32.923Z,215
2017-01-08T11:17:32.885Z,210
2017-01-08T11:18:32.458Z,215
2017-01-08T11:19:32.426Z,210
2017-01-08T11:20:32.380Z,215
2017-01-08T11:21:32.725Z,215
2017-01-08T11:22:31.908Z,210
2017-01-08T11:23:32.639Z,205
2017-01-08T11:24:32.210Z,200
2017-01-08T11:25:32.551Z,195
2017-01-08T11:26:32.516Z,195
2017-01-08T11:27:32.098Z,195
2017-01-08T11:28:32.436Z,200
2017-01-08T11:29:32.001Z,205
2017-01-08T11:30:31.964Z,205
2017-01-08T11:31:31.921Z,210
2017-01-08T11:32:31.882Z,210
2017-01-08T11:33:31.842Z,215
2017-01-08T11:34:32.190Z,215
2017-01-08T11:35:32.151Z,220
2017-01-08T11:36:31.723Z,225
2017-01-08T11:37:31.687Z,225
2017-01-08T11:38:31.644Z,225
2017-01-08T11:39:30.836Z,220
2017-01-08T11:40:31.950Z,215
2017-01-08T11:41:31.521Z,210
2017-01-08T11:42:31.496Z,200
2017-01-08T11:43:31.443Z,195
2017-01-08T11:44:31.782Z,190
2017-01-08T11:45:31.744Z,180
2017-01-08T11:46:31.315Z,180
2017-01-08T11:47:31.275Z,175
2017-01-08T11:48:31.635Z,170
2017-01-08T11:49:31.197Z,170
2017-01-08T11:50:31.162Z,175
2017-01-08T11:51:30.729Z,180
2017-01-08T11:52:31.460Z,190
2017-01-08T11:53:30.651Z,195
2017-01-08T11:54:31.373Z,195
2017-01-08T11:55:30.565Z,195
2017-01-08T11:56:30.526Z,190
2017-01-08T11:57:30.486Z,190
2017-01-08T11:58:30.830Z,185
2017-01-08T11:59:30.793Z,180
2017-01-08T12:00:30.752Z,175
2017-01-08T12:01:30.715Z,180
2017-01-08T12:02:30.692Z,180
2017-01-08T12:03:31.008Z,180
2017-01-08T12:04:30.586Z,180
2017-01-08T12:05:30.161Z,180
2017-01-08T12:06:30.504Z,180
2017-01-08T12:07:30.471Z,175
2017-01-08T12:08:30.041Z,170
2017-01-08T12:09:30.385Z,160
2017-01-08T12:10:30.354Z,155
2017-01-08T12:11:30.683Z,150
2017-01-08T12:12:30.267Z,150
2017-01-08T12:13:30.603Z,145
2017-01-08T12:14:30.576Z,140
2017-01-08T12:15:30.148Z,140
2017-01-08T12:16:30.101Z,140
2017-01-08T12:17:30.057Z,140
2017-01-08T12:18:30.060Z,140
2017-01-08T12:19:29.985Z,140
2017-01-08T12:20:30.328Z,135
2017-01-08T12:21:30.283Z,135
2017-01-08T12:22:28.704Z,135
2017-01-08T12:23:29.427Z,130
2017-01-08T12:24:29.772Z,125
2017-01-08T12:25:30.115Z,115
2017-01-08T12:26:30.081Z,110
2017-01-08T12:27:30.039Z,105
2017-01-08T12:28:30.007Z,105
2017-01-08T12:29:29.188Z,105
2017-01-08T12:30:29.151Z,110
2017-01-08T12:31:28.727Z,115
2017-01-08T12:32:29.836Z,125
2017-01-08T12:33:29.800Z,130
2017-01-08T12:34:29.770Z,140
2017-01-08T12:35:29.695Z,145
2017-01-08T12:36:29.708Z,150
2017-01-08T12:37:29.627Z,160
2017-01-08T12:38:29.358Z,170
2017-01-08T12:39:28.724Z,180
2017-01-08T12:40:28.738Z,180
2017-01-08T12:41:28.720Z,180
2017-01-08T12:42:29.040Z,175
2017-01-08T12:43:28.997Z,165
2017-01-08T12:44:29.351Z,160
2017-01-08T12:45:28.530Z,165
2017-01-08T12:46:28.909Z,170
2017-01-08T12:47:28.833Z,175
2017-01-08T12:48:28.788Z,180
2017-01-08T12:49:28.748Z,180
2017-01-08T12:50:28.321Z,180
2017-01-08T12:51:28.677Z,185
2017-01-08T12:52:28.243Z,190
2017-01-08T12:53:28.976Z,195
2017-01-08T12:54:28.930Z,195
2017-01-08T12:55:28.131Z,205
2017-01-08T12:56:28.470Z,210
2017-01-08T12:57:28.810Z,230
2017-01-08T12:58:28.385Z,240
2017-01-08T12:59:28.728Z,240
2017-01-08T13:00:28.698Z,230
2017-01-08T13:01:27.875Z,225
2017-01-08T13:02:28.223Z,230
2017-01-08T13:03:28.190Z,245
2017-01-08T13:04:28.147Z,250
2017-01-08T13:05:28.103Z,260
2017-01-08T13:06:28.466Z,265
2017-01-08T13:07:28.023Z,280
2017-01-08T13:08:27.980Z,295
2017-01-08T13:09:27.940Z,300
2017-01-08T13:10:26.746Z,305
2017-01-08T13:11:28.243Z,310
2017-01-08T13:12:27.818Z,305
2017-01-08T13:13:27.784Z,295
2017-01-08T13:14:27.745Z,290
2017-01-08T13:15:27.703Z,280
2017-01-08T13:16:26.884Z,270
2017-01-08T13:17:27.647Z,255
2017-01-08T13:18:27.974Z,240
2017-01-08T13:19:27.155Z,230
2017-01-08T13:20:27.118Z,220
2017-01-08T13:21:27.073Z,210
2017-01-08T13:22:27.423Z,210
2017-01-08T13:23:27.775Z,205
2017-01-08T13:24:26.961Z,200
2017-01-08T13:25:27.688Z,195
2017-01-08T13:26:27.263Z,195
2017-01-08T13:27:27.219Z,200
2017-01-08T13:28:27.185Z,190
2017-01-08T13:29:26.761Z,185
2017-01-08T13:30:27.102Z,185
2017-01-08T13:31:27.068Z,185
2017-01-08T13:32:27.022Z,185
2017-01-08T13:33:27.378Z,180
2017-01-08T13:34:27.334Z,180
2017-01-08T13:35:26.527Z,175
2017-01-08T13:36:27.249Z,175
2017-01-08T13:37:27.221Z,170
2017-01-08T13:38:26.414Z,170
2017-01-08T13:39:27.130Z,160
2017-01-08T13:40:26.710Z,160
2017-01-08T13:41:26.666Z,155
2017-01-08T13:42:27.014Z,155
2017-01-08T13:43:26.585Z,150
2017-01-08T13:44:26.545Z,140
2017-01-08T13:45:26.902Z,135
2017-01-08T13:46:26.462Z,140
2017-01-08T13:47:26.438Z,130
2017-01-08T13:48:26.775Z,130
2017-01-08T13:49:26.337Z,130
2017-01-08T13:50:25.915Z,135
2017-01-08T13:51:26.654Z,130
2017-01-08T13:52:26.226Z,125
2017-01-08T13:53:26.186Z,125
2017-01-08T13:54:25.757Z,125
2017-01-08T13:55:26.104Z,125
2017-01-08T13:56:26.448Z,120
2017-01-08T13:57:26.416Z,115
2017-01-08T13:58:25.597Z,115
2017-01-08T13:59:26.328Z,110
2017-01-08T14:00:25.904Z,105
2017-01-08T14:01:26.250Z,105
2017-01-08T14:02:25.825Z,105
2017-01-08T14:03:25.784Z,100
2017-01-08T14:04:26.140Z,100
2017-01-08T14:05:25.699Z,100
2017-01-08T14:06:25.659Z,100
2017-01-08T14:07:25.621Z,100
2017-01-08T14:08:25.581Z,95
2017-01-08T14:09:25.161Z,95
2017-01-08T14:10:25.876Z,90
2017-01-08T14:11:25.845Z,90
2017-01-08T14:12:25.805Z,90
2017-01-08T14:13:25.765Z,85
2017-01-08T14:14:24.558Z,80
2017-01-08T14:15:25.291Z,80
2017-01-08T14:16:24.475Z,75
2017-01-08T14:17:25.214Z,80
2017-01-08T14:18:25.551Z,70
2017-01-08T14:19:25.509Z,70
2017-01-08T14:20:25.086Z,70